Marston, Missouri
Current Conditions -  °F | °C
As of 1:55 AM on Saturday 20 Dec 2014 (Local Time) from KUCY Reporting Station
Overcast Overcast  
Wind Chill: -1°   Ceiling: 6500
Heat Index:   Visibility: 10mi
Dew Point: -2°   Wind: 5mph
Humidity: 81%   Direction: 10°N
Pressure: 30.24"   Gusts: NA
Location:  36.52°N, 89.61°W
Report Text: KUCY 200755Z AUTO 01004KT 10SM OVC065 01/M02 A3024 RMK
Loading
Personal Weather Stations






























Interactive Weather Map New forecast layout! Learn more

10-Day Weather Forecast

Advertisements
Track Severe Weather on mobile